»·PEaware :: N525SA KFAT-KOLM

N525SA :: KFAT-KOLM

FLIGHT INFORMATION

Flight Status: Arrived
Operator: Privately registered:
United States
More flights under this callsign
Pilot: Utku A. (15598)
Aircraft: SOCATA TBM-900
(TBM9)
More flights by this aircraft type
Origin: KFAT Fresno Yosemite Intl
United States
Destination: KOLM Olympia
United States
More flights between these airports :: More routes between these airports
Route: +CZQ V23 ZUNAS TALEM V23 EUG CVO V495 UBG T263 WINLO V165 OLM
File this flight plan on PilotEdge
Remarks:
Altitude:
(Current/Filed)
31,000ft
Speed:
(Current/Filed)
320kts
Departed: 28-Oct-18 10:59 AM
Arrived: 28-Oct-18 01:31 PM
Distance/Time
Traveled:
628nm/2:31
Distance/Time
To Go:
Arrived

Flight Plot

Page will automatically refresh every two minutes.

Flight plan parsing failed; only flown route is shown


Map Options




Map Legend


Flown Route
Filed Route
Departure Airport
Arrival Airport
Navaid (VOR, NDB)
Fix

Horizontal Profiles

Position Reports

Time Latitude Longitude Heading Altitude Ground
Speed
28-Oct-18 10:40 36.777916 -119.730011 217 328ft 0kts
28-Oct-18 10:41 36.777916 -119.730011 217 328ft 0kts
28-Oct-18 10:42 36.777916 -119.730011 217 328ft 0kts
28-Oct-18 10:43 36.777916 -119.730011 217 328ft 0kts
28-Oct-18 10:44 36.777916 -119.730011 217 328ft 0kts
28-Oct-18 10:45 36.777916 -119.730011 217 328ft 0kts
28-Oct-18 10:46 36.777916 -119.730011 217 328ft 0kts
28-Oct-18 10:47 36.777916 -119.730011 217 328ft 0kts
28-Oct-18 10:48 36.777916 -119.730011 217 328ft 0kts
28-Oct-18 10:49 36.777916 -119.730011 217 328ft 0kts
28-Oct-18 10:50 36.777916 -119.730011 217 328ft 0kts
28-Oct-18 10:51 36.777916 -119.730011 217 328ft 0kts
28-Oct-18 10:53 36.777916 -119.730011 217 328ft 0kts
28-Oct-18 10:54 36.777916 -119.730011 217 328ft 0kts
28-Oct-18 10:55 36.777916 -119.730011 217 328ft 0kts
28-Oct-18 10:56 36.777916 -119.730011 217 328ft 0kts
28-Oct-18 10:57 36.777803 -119.729999 136 328ft 4kts
28-Oct-18 10:58 36.779248 -119.729996 304 328ft 10kts
28-Oct-18 10:59 36.781617 -119.732413 305 328ft 12kts
28-Oct-18 11:00 36.782321 -119.732868 37 328ft 0kts
28-Oct-18 11:01 36.782490 -119.731429 125 329ft 14kts
28-Oct-18 11:02 36.767854 -119.705557 122 1486ft 113kts
28-Oct-18 11:03 36.750569 -119.672271 122 3314ft 124kts
28-Oct-18 11:03 36.735090 -119.642455 122 4890ft 126kts
28-Oct-18 11:05 36.708314 -119.580362 85 4982ft 200kts
28-Oct-18 11:05 36.737368 -119.574076 287 6974ft 146kts
28-Oct-18 11:07 36.761019 -119.622502 302 9292ft 144kts
28-Oct-18 11:07 36.781424 -119.654530 302 11129ft 140kts
28-Oct-18 11:09 36.809267 -119.697991 302 13521ft 141kts
28-Oct-18 11:09 36.829748 -119.729916 301 15171ft 144kts
28-Oct-18 11:11 36.859235 -119.775939 301 17259ft 149kts
28-Oct-18 11:11 36.880920 -119.809817 301 18625ft 152kts
28-Oct-18 11:12 36.914529 -119.844560 313 20115ft 161kts
28-Oct-18 11:13 36.950386 -119.879798 313 21763ft 167kts
28-Oct-18 11:14 36.987101 -119.915835 312 23399ft 174kts
28-Oct-18 11:15 37.030358 -119.958384 313 24564ft 218kts
28-Oct-18 11:16 37.080632 -120.007812 313 25658ft 241kts
28-Oct-18 11:17 37.132813 -120.059224 313 26657ft 251kts
28-Oct-18 11:18 37.188161 -120.113878 313 27650ft 255kts
28-Oct-18 11:19 37.243819 -120.168951 313 28628ft 255kts
28-Oct-18 11:20 37.299087 -120.223689 312 29593ft 253kts
28-Oct-18 11:21 37.354350 -120.278650 312 30162ft 265kts
28-Oct-18 11:22 37.414436 -120.338518 313 30159ft 285kts
28-Oct-18 11:23 37.477691 -120.401574 313 30155ft 294kts
28-Oct-18 11:24 37.542154 -120.465959 313 30153ft 298kts
28-Oct-18 11:25 37.607243 -120.531180 313 30152ft 300kts
28-Oct-18 11:26 37.672484 -120.596699 313 30151ft 301kts
28-Oct-18 11:27 37.734297 -120.658894 313 30155ft 297kts
28-Oct-18 11:28 37.793333 -120.718432 313 30158ft 294kts
28-Oct-18 11:29 37.856931 -120.782718 313 30158ft 293kts
28-Oct-18 11:30 37.920274 -120.846899 313 30158ft 292kts
28-Oct-18 11:31 37.983648 -120.911256 313 30158ft 292kts
28-Oct-18 11:32 38.046896 -120.975629 313 30158ft 292kts
28-Oct-18 11:33 38.102038 -121.044478 303 30158ft 284kts
28-Oct-18 11:34 38.152332 -121.118469 302 30152ft 282kts
28-Oct-18 11:35 38.202539 -121.192669 302 30145ft 271kts
28-Oct-18 11:36 38.250228 -121.263351 301 30142ft 260kts
28-Oct-18 11:37 38.297721 -121.333898 302 30144ft 265kts
28-Oct-18 11:38 38.346099 -121.405880 302 30144ft 271kts
28-Oct-18 11:39 38.395179 -121.479066 302 30146ft 274kts
28-Oct-18 11:40 38.449226 -121.548354 324 30134ft 293kts
28-Oct-18 11:41 38.529344 -121.578705 337 30135ft 304kts
28-Oct-18 11:42 38.611231 -121.604874 337 30132ft 304kts
28-Oct-18 11:43 38.692678 -121.630843 337 30129ft 305kts
28-Oct-18 11:44 38.773808 -121.656743 336 30136ft 305kts
28-Oct-18 11:45 38.854458 -121.682552 336 30133ft 306kts
28-Oct-18 11:46 38.936074 -121.708711 334 30133ft 307kts
28-Oct-18 11:47 39.019106 -121.735485 332 30136ft 310kts
28-Oct-18 11:48 39.101707 -121.762229 331 30137ft 312kts
28-Oct-18 11:49 39.184200 -121.788924 331 30128ft 312kts
28-Oct-18 11:50 39.268430 -121.816242 331 30137ft 312kts
28-Oct-18 11:51 39.350264 -121.847303 324 30153ft 302kts
28-Oct-18 11:52 39.428100 -121.887146 324 30153ft 301kts
28-Oct-18 11:53 39.505349 -121.926987 323 30157ft 302kts
28-Oct-18 11:54 39.582040 -121.966630 323 30157ft 302kts
28-Oct-18 11:55 39.659997 -122.007037 323 30155ft 302kts
28-Oct-18 11:56 39.737832 -122.047475 323 30156ft 301kts
28-Oct-18 11:57 39.814919 -122.087622 324 30158ft 302kts
28-Oct-18 11:58 39.892479 -122.128109 324 30157ft 303kts
28-Oct-18 11:59 39.970452 -122.168910 323 30157ft 303kts
28-Oct-18 12:00 40.048149 -122.209668 323 30158ft 303kts
28-Oct-18 12:01 40.125519 -122.247312 328 30147ft 308kts
28-Oct-18 12:02 40.206897 -122.281032 328 30145ft 306kts
28-Oct-18 12:03 40.287864 -122.314641 328 30137ft 306kts
28-Oct-18 12:04 40.368866 -122.348347 328 30127ft 306kts
28-Oct-18 12:05 40.449862 -122.382128 328 30123ft 306kts
28-Oct-18 12:06 40.530603 -122.415889 328 30123ft 306kts
28-Oct-18 12:07 40.611248 -122.449686 328 30131ft 306kts
28-Oct-18 12:08 40.692041 -122.483645 328 30141ft 305kts
28-Oct-18 12:09 40.772850 -122.517695 328 30150ft 305kts
28-Oct-18 12:10 40.853262 -122.551680 328 30162ft 305kts
28-Oct-18 12:11 40.933963 -122.585867 328 30175ft 305kts
28-Oct-18 12:12 41.014748 -122.620087 326 30178ft 307kts
28-Oct-18 12:13 41.095336 -122.654384 322 30193ft 308kts
28-Oct-18 12:14 41.174436 -122.688258 322 30183ft 310kts
28-Oct-18 12:15 41.255786 -122.723091 321 30183ft 310kts
28-Oct-18 12:16 41.337633 -122.758220 322 30168ft 311kts
28-Oct-18 12:17 41.420075 -122.793696 322 30140ft 312kts
28-Oct-18 12:18 41.509523 -122.812564 337 30131ft 338kts
28-Oct-18 12:19 41.602964 -122.822091 337 30132ft 337kts
28-Oct-18 12:20 41.696409 -122.831662 337 30136ft 338kts
28-Oct-18 12:21 41.789855 -122.841265 337 30136ft 338kts
28-Oct-18 12:22 41.882897 -122.850848 337 30137ft 338kts
28-Oct-18 12:23 41.976172 -122.860481 337 30137ft 339kts
28-Oct-18 12:24 42.069965 -122.870187 337 30139ft 339kts
28-Oct-18 12:25 42.161956 -122.879724 337 30124ft 338kts
28-Oct-18 12:26 42.255202 -122.889416 337 30127ft 337kts
28-Oct-18 12:27 42.348555 -122.899188 337 30127ft 336kts
28-Oct-18 12:28 42.441609 -122.908939 337 30130ft 336kts
28-Oct-18 12:29 42.533094 -122.922779 333 30134ft 330kts
28-Oct-18 12:30 42.623847 -122.939525 333 30136ft 330kts
28-Oct-18 12:31 42.714954 -122.956373 333 30141ft 331kts
28-Oct-18 12:32 42.805880 -122.973245 333 30142ft 331kts
28-Oct-18 12:33 42.897008 -122.990198 333 30146ft 331kts
28-Oct-18 12:34 42.987971 -123.007191 334 30140ft 331kts
28-Oct-18 12:35 43.078066 -123.024018 335 30135ft 330kts
28-Oct-18 12:36 43.166135 -123.040522 335 30122ft 328kts
28-Oct-18 12:37 43.255963 -123.057429 335 30123ft 326kts
28-Oct-18 12:38 43.345764 -123.074385 335 30124ft 326kts
28-Oct-18 12:39 43.435384 -123.091348 335 30126ft 326kts
28-Oct-18 12:40 43.524777 -123.108321 335 30126ft 326kts
28-Oct-18 12:41 43.614390 -123.125386 335 30128ft 326kts
28-Oct-18 12:42 43.704080 -123.142517 335 30129ft 326kts
28-Oct-18 12:43 43.794156 -123.159772 335 30129ft 327kts
28-Oct-18 12:44 43.883662 -123.176972 335 30130ft 327kts
28-Oct-18 12:45 43.973864 -123.194364 335 30131ft 327kts
28-Oct-18 12:46 44.063948 -123.211790 335 30132ft 328kts
28-Oct-18 12:47 44.147981 -123.227853 335 30119ft 328kts
28-Oct-18 12:48 44.237472 -123.244537 335 30115ft 326kts
28-Oct-18 12:49 44.327361 -123.261339 335 30106ft 326kts
28-Oct-18 12:50 44.417005 -123.278144 335 30100ft 326kts
28-Oct-18 12:51 44.507482 -123.291645 350 30088ft 347kts
28-Oct-18 12:52 44.604489 -123.255507 2 30099ft 362kts
28-Oct-18 12:53 44.701624 -123.219856 2 30096ft 362kts
28-Oct-18 12:54 44.799133 -123.184046 2 30085ft 363kts
28-Oct-18 12:55 44.896636 -123.148114 2 30079ft 364kts
28-Oct-18 12:56 44.994228 -123.112032 2 30078ft 364kts
28-Oct-18 12:57 45.092273 -123.075654 2 30080ft 366kts
28-Oct-18 12:58 45.188177 -123.039904 2 30073ft 365kts
28-Oct-18 12:59 45.286226 -123.003249 2 30070ft 365kts
28-Oct-18 13:00 45.382441 -122.978997 335 30076ft 329kts
28-Oct-18 13:02 45.475030 -122.993325 339 29428ft 349kts
28-Oct-18 13:03 45.574030 -123.005728 341 28052ft 366kts
28-Oct-18 13:04 45.675969 -123.018477 342 26590ft 371kts
28-Oct-18 13:05 45.778559 -123.031368 343 25119ft 370kts
28-Oct-18 13:06 45.880684 -123.044280 343 23454ft 372kts
28-Oct-18 13:07 45.982670 -123.057189 344 21517ft 371kts
28-Oct-18 13:08 46.084356 -123.067381 347 19543ft 363kts
28-Oct-18 13:09 46.169660 -123.074977 346 19061ft 329kts
28-Oct-18 13:10 46.258046 -123.082970 345 19067ft 312kts
28-Oct-18 13:11 46.343744 -123.090741 345 19055ft 308kts
28-Oct-18 13:12 46.428949 -123.098477 345 19045ft 307kts
28-Oct-18 13:13 46.515734 -123.078851 7 18423ft 338kts
28-Oct-18 13:14 46.607484 -123.043418 7 16900ft 343kts
28-Oct-18 13:15 46.699041 -123.008001 8 15418ft 340kts
28-Oct-18 13:16 46.789963 -122.972718 9 13929ft 335kts
28-Oct-18 13:17 46.879570 -122.945223 5 12445ft 321kts
28-Oct-18 13:17 46.951070 -122.926029 5 11198ft 309kts
28-Oct-18 13:19 47.047590 -122.914007 355 9457ft 286kts
28-Oct-18 13:19 47.109050 -122.914108 355 8271ft 276kts
28-Oct-18 13:21 47.191348 -122.915401 355 6464ft 235kts
28-Oct-18 13:21 47.243844 -122.917087 355 5178ft 215kts
28-Oct-18 13:22 47.292576 -122.894384 85 3606ft 197kts
28-Oct-18 13:23 47.260791 -122.850922 155 2968ft 146kts
28-Oct-18 13:24 47.225549 -122.829787 192 2983ft 132kts
28-Oct-18 13:25 47.189677 -122.840169 190 2987ft 133kts
28-Oct-18 13:26 47.153154 -122.850830 190 2987ft 136kts
28-Oct-18 13:27 47.118141 -122.861045 190 2966ft 115kts
28-Oct-18 13:28 47.086902 -122.870153 190 2382ft 110kts
28-Oct-18 13:29 47.056139 -122.879162 190 1834ft 109kts
28-Oct-18 13:30 47.029431 -122.887367 188 1247ft 96kts
28-Oct-18 13:31 47.003561 -122.894689 191 778ft 96kts
28-Oct-18 13:32 46.979713 -122.901407 191 302ft 79kts
28-Oct-18 13:33 46.968250 -122.904775 188 200ft 9kts
28-Oct-18 13:34 46.968364 -122.900721 11 200ft 20kts
28-Oct-18 13:35 46.971940 -122.897281 45 200ft 19kts
28-Oct-18 13:36 46.974747 -122.898682 321 197ft 10kts
28-Oct-18 13:37 46.976892 -122.899586 309 193ft 7kts
28-Oct-18 13:38 46.976550 -122.899827 101 194ft 0kts
28-Oct-18 13:39 46.976550 -122.899828 101 194ft 0kts
28-Oct-18 13:40 46.976550 -122.899828 101 194ft 0kts
28-Oct-18 13:41 46.976550 -122.899828 101 194ft 0kts
28-Oct-18 13:42 46.976550 -122.899828 101 194ft 0kts

Navigation Log

Ident Type
Flight plan parsing failed, navigation log unavailable